createdAt,value
2018-02-16T02:02:39.789Z,30.10
2018-02-16T02:03:41.765Z,15.80
2018-02-16T02:04:39.758Z,14.20
2018-02-16T02:05:39.764Z,16.90
2018-02-16T02:06:39.759Z,17.40
2018-02-16T02:07:41.770Z,19.40
2018-02-16T02:08:39.769Z,19.50
2018-02-16T02:09:39.768Z,19.00
2018-02-16T02:10:39.774Z,17.90
2018-02-16T02:11:39.765Z,18.60
2018-02-16T02:12:39.770Z,18.90
2018-02-16T02:13:40.770Z,18.80
2018-02-16T02:14:39.768Z,18.30
2018-02-16T02:15:51.623Z,18.80
2018-02-16T02:16:39.770Z,19.20
2018-02-16T02:17:41.778Z,21.10
2018-02-16T02:18:39.774Z,23.20
2018-02-16T02:19:39.783Z,23.60
2018-02-16T02:20:39.774Z,23.80
2018-02-16T02:21:55.626Z,25.20
2018-02-16T02:22:39.779Z,24.80
2018-02-16T02:23:45.622Z,23.20
2018-02-16T02:24:39.776Z,24.10
2018-02-16T02:25:39.798Z,23.60
2018-02-16T02:26:39.779Z,25.60
2018-02-16T02:27:39.787Z,24.20
2018-02-16T02:28:39.793Z,23.30
2018-02-16T02:29:39.790Z,22.50
2018-02-16T02:30:39.782Z,21.60
2018-02-16T02:31:39.786Z,21.80
2018-02-16T02:32:39.793Z,20.90
2018-02-16T02:33:45.621Z,21.40
2018-02-16T02:34:39.790Z,21.50
2018-02-16T02:35:40.797Z,22.40
2018-02-16T02:36:39.789Z,22.30
2018-02-16T02:37:46.648Z,23.80
2018-02-16T02:38:39.802Z,25.10
2018-02-16T02:40:00.801Z,26.30
2018-02-16T02:40:39.791Z,25.40
2018-02-16T02:41:45.634Z,28.00
2018-02-16T02:42:39.789Z,27.60
2018-02-16T02:43:39.796Z,30.50
2018-02-16T02:44:39.802Z,29.60
2018-02-16T02:45:46.633Z,28.90
2018-02-16T02:46:39.801Z,27.80
2018-02-16T02:47:40.810Z,29.70
2018-02-16T02:48:39.810Z,31.50
2018-02-16T02:49:41.809Z,32.30
2018-02-16T02:50:39.807Z,33.20
2018-02-16T02:51:41.828Z,33.20
2018-02-16T02:52:39.802Z,33.60
2018-02-16T02:53:54.626Z,30.90
2018-02-16T02:54:39.808Z,32.20
2018-02-16T02:55:40.819Z,33.20
2018-02-16T02:56:39.805Z,30.30
2018-02-16T02:57:44.627Z,32.40
2018-02-16T02:58:39.821Z,34.40
2018-02-16T02:59:39.820Z,35.40
2018-02-16T03:00:39.805Z,33.60
2018-02-16T03:01:45.641Z,32.60
2018-02-16T03:02:39.820Z,33.10
2018-02-16T03:03:44.630Z,33.80
2018-02-16T03:04:39.808Z,33.60
2018-02-16T03:06:00.822Z,35.00
2018-02-16T03:06:39.820Z,36.00
2018-02-16T03:07:45.631Z,34.40
2018-02-16T03:08:39.822Z,35.20
2018-02-16T03:09:41.828Z,37.60
2018-02-16T03:10:39.822Z,34.30
2018-02-16T03:11:41.824Z,35.30
2018-02-16T03:12:39.822Z,34.50
2018-02-16T03:13:44.622Z,35.70
2018-02-16T03:14:39.837Z,34.10
2018-02-16T03:15:41.839Z,37.50
2018-02-16T03:16:39.821Z,35.30
2018-02-16T03:17:39.837Z,35.70
2018-02-16T03:18:39.824Z,34.60
2018-02-16T03:19:40.840Z,33.90
2018-02-16T03:20:39.845Z,33.50
2018-02-16T03:21:44.624Z,33.20
2018-02-16T03:22:39.827Z,33.00
2018-02-16T03:23:41.840Z,33.80
2018-02-16T03:24:39.829Z,33.60
2018-02-16T03:25:45.630Z,33.60
2018-02-16T03:26:39.852Z,33.20
2018-02-16T03:27:46.643Z,34.00
2018-02-16T03:28:39.827Z,34.90
2018-02-16T03:29:44.628Z,33.00
2018-02-16T03:30:39.837Z,32.90
2018-02-16T03:31:39.845Z,32.30
2018-02-16T03:32:39.832Z,32.60
2018-02-16T03:33:39.833Z,32.20
2018-02-16T03:34:39.854Z,31.70
2018-02-16T03:35:39.837Z,31.10
2018-02-16T03:36:41.866Z,32.40
2018-02-16T03:37:39.843Z,30.40
2018-02-16T03:38:40.852Z,30.50
2018-02-16T03:39:39.861Z,32.40
2018-02-16T03:40:39.849Z,32.20
2018-02-16T03:41:39.846Z,33.70
2018-02-16T03:42:41.863Z,34.00
2018-02-16T03:43:39.852Z,34.00
2018-02-16T03:44:40.851Z,34.00
2018-02-16T03:45:39.842Z,33.60
2018-02-16T03:46:51.627Z,35.80
2018-02-16T03:47:39.848Z,33.50
2018-02-16T03:48:40.906Z,34.00
2018-02-16T03:49:39.860Z,31.50
2018-02-16T03:50:41.863Z,32.20
2018-02-16T03:51:39.849Z,31.30
2018-02-16T03:52:39.865Z,31.20
2018-02-16T03:53:39.850Z,30.90
2018-02-16T03:54:39.854Z,31.60
2018-02-16T03:55:39.853Z,34.50
2018-02-16T03:56:40.890Z,34.10
2018-02-16T03:57:39.852Z,32.60
2018-02-16T03:58:39.875Z,32.30
2018-02-16T03:59:39.863Z,33.20
2018-02-16T04:00:41.870Z,33.00
2018-02-16T04:01:39.859Z,33.90
2018-02-16T04:02:39.882Z,31.30
2018-02-16T04:03:39.864Z,34.20
2018-02-16T04:04:40.872Z,33.70
2018-02-16T04:05:39.875Z,32.80
2018-02-16T04:06:41.873Z,31.00
2018-02-16T04:07:39.865Z,34.20
2018-02-16T04:08:39.883Z,32.80
2018-02-16T04:09:39.871Z,33.60
2018-02-16T04:10:39.897Z,34.00
2018-02-16T04:11:39.869Z,35.20
2018-02-16T04:12:39.869Z,33.20
2018-02-16T04:13:39.873Z,33.00
2018-02-16T04:14:40.887Z,34.60
2018-02-16T04:15:39.866Z,35.80
2018-02-16T04:16:40.902Z,32.60
2018-02-16T04:17:39.879Z,35.00
2018-02-16T04:18:45.630Z,32.60
2018-02-16T04:19:39.872Z,32.50
2018-02-16T04:20:39.938Z,32.50
2018-02-16T04:21:39.898Z,34.90
2018-02-16T04:22:39.884Z,32.20
2018-02-16T04:23:39.874Z,33.50
2018-02-16T04:24:52.636Z,33.70
2018-02-16T04:25:39.917Z,32.70
2018-02-16T04:26:41.890Z,31.80
2018-02-16T04:27:39.896Z,32.80
2018-02-16T04:28:41.897Z,31.50
2018-02-16T04:29:39.877Z,33.00
2018-02-16T04:30:54.629Z,32.00
2018-02-16T04:31:39.917Z,31.10
2018-02-16T04:33:16.643Z,31.60
2018-02-16T04:33:39.905Z,33.40
2018-02-16T04:34:39.915Z,31.90
2018-02-16T04:35:51.631Z,31.70
2018-02-16T04:36:39.884Z,31.80
2018-02-16T04:38:00.891Z,31.20
2018-02-16T04:38:39.895Z,31.80
2018-02-16T04:39:45.688Z,32.50
2018-02-16T04:40:39.889Z,31.90
2018-02-16T04:41:39.896Z,32.50
2018-02-16T04:42:39.905Z,34.30
2018-02-16T04:44:05.656Z,35.70
2018-02-16T04:44:39.888Z,33.30
2018-02-16T04:45:54.630Z,32.40
2018-02-16T04:46:39.895Z,33.40
2018-02-16T04:47:50.645Z,33.50
2018-02-16T04:48:39.897Z,33.10
2018-02-16T04:49:40.901Z,32.50
2018-02-16T04:50:40.269Z,33.80
2018-02-16T04:51:41.908Z,32.80
2018-02-16T04:52:39.895Z,33.80
2018-02-16T04:53:55.642Z,33.40
2018-02-16T04:54:39.897Z,32.20
2018-02-16T04:55:56.635Z,33.60
2018-02-16T04:56:39.897Z,32.90
2018-02-16T04:57:39.905Z,32.30
2018-02-16T04:58:39.905Z,31.70
2018-02-16T04:59:52.636Z,33.50
2018-02-16T05:00:39.901Z,33.60
2018-02-16T05:01:46.638Z,33.30
2018-02-16T05:02:40.101Z,32.90
2018-02-16T05:03:40.916Z,33.50
2018-02-16T05:04:39.945Z,31.40
2018-02-16T05:05:55.648Z,30.60
2018-02-16T05:06:39.905Z,32.50
2018-02-16T05:07:46.648Z,33.10
2018-02-16T05:08:39.910Z,34.50
2018-02-16T05:09:54.649Z,32.40
2018-02-16T05:10:39.915Z,31.50
2018-02-16T05:11:40.919Z,33.00
2018-02-16T05:12:39.909Z,33.80
2018-02-16T05:13:39.926Z,34.30
2018-02-16T05:14:39.910Z,35.40
2018-02-16T05:37:02.193Z,34.30
2018-02-16T05:38:07.183Z,38.00
2018-02-16T05:39:00.295Z,36.20
2018-02-16T05:40:01.309Z,35.70
2018-02-16T05:41:00.297Z,36.90
2018-02-16T05:42:01.312Z,37.00
2018-02-16T05:43:00.298Z,37.10
2018-02-16T05:44:00.313Z,38.80
2018-02-16T05:45:00.308Z,35.50
2018-02-16T05:46:06.196Z,39.20
2018-02-16T05:47:00.336Z,36.10
2018-02-16T05:48:12.168Z,38.00
2018-02-16T05:49:00.310Z,36.80
2018-02-16T05:50:00.303Z,39.30
2018-02-16T05:51:00.303Z,39.40
2018-02-16T05:52:01.318Z,38.10
2018-02-16T05:53:00.308Z,39.10
2018-02-16T05:54:16.185Z,39.20
2018-02-16T05:55:00.310Z,37.10
2018-02-16T05:56:00.301Z,38.70
2018-02-16T05:57:00.304Z,39.90
2018-02-16T05:58:00.326Z,38.00
2018-02-16T05:59:01.322Z,37.30
2018-02-16T06:00:00.316Z,38.30
2018-02-16T06:01:00.325Z,37.70
2018-02-16T06:02:00.332Z,39.70
2018-02-16T06:03:00.323Z,38.90
2018-02-16T06:04:00.340Z,39.80
2018-02-16T06:05:02.343Z,39.60
2018-02-16T06:06:00.321Z,39.30
2018-02-16T06:07:05.198Z,40.90
2018-02-16T06:08:00.317Z,40.40
2018-02-16T06:09:02.329Z,39.30
2018-02-16T06:10:00.317Z,37.00
2018-02-16T06:11:00.315Z,39.30
2018-02-16T06:12:00.355Z,41.90
2018-02-16T06:13:01.323Z,38.50
2018-02-16T06:14:00.343Z,38.30
2018-02-16T06:15:06.235Z,38.60
2018-02-16T06:16:00.347Z,39.40
2018-02-16T06:17:00.326Z,38.00
2018-02-16T06:18:00.318Z,37.70
2018-02-16T06:19:06.186Z,38.80
2018-02-16T06:20:00.353Z,40.50
2018-02-16T06:21:00.328Z,39.00
2018-02-16T06:22:00.320Z,38.00
2018-02-16T06:23:01.333Z,39.50
2018-02-16T06:24:00.334Z,36.70
2018-02-16T06:25:07.204Z,38.40
2018-02-16T06:26:00.330Z,39.40
2018-02-16T06:27:02.347Z,38.50
2018-02-16T06:28:00.333Z,37.70
2018-02-16T06:29:06.178Z,37.20
2018-02-16T06:30:00.329Z,37.40
2018-02-16T06:31:06.207Z,40.40
2018-02-16T06:32:00.332Z,40.80
2018-02-16T06:33:01.330Z,41.30
2018-02-16T06:34:00.328Z,39.00
2018-02-16T06:35:01.338Z,37.70
2018-02-16T06:36:00.331Z,37.80
2018-02-16T06:37:01.340Z,38.80
2018-02-16T06:38:00.332Z,36.60
2018-02-16T06:39:00.355Z,38.60
2018-02-16T06:40:00.351Z,37.30
2018-02-16T06:41:07.193Z,39.70
2018-02-16T06:42:00.360Z,38.50
2018-02-16T06:43:06.187Z,37.20
2018-02-16T06:44:00.337Z,39.50
2018-02-16T06:45:00.347Z,40.20
2018-02-16T06:46:00.375Z,34.50
2018-02-16T06:47:00.850Z,37.20
2018-02-16T06:48:00.346Z,38.80
2018-02-16T06:49:13.193Z,37.60
2018-02-16T06:50:00.345Z,37.30
2018-02-16T06:51:01.347Z,38.90
2018-02-16T06:52:00.354Z,38.00
2018-02-16T06:53:07.180Z,39.80
2018-02-16T06:54:00.336Z,38.40
2018-02-16T06:55:00.378Z,40.20
2018-02-16T06:56:00.381Z,38.70
2018-02-16T06:57:05.221Z,40.50
2018-02-16T06:58:00.339Z,41.00
2018-02-16T06:59:00.367Z,41.30
2018-02-16T07:00:00.409Z,40.20
2018-02-16T07:01:00.358Z,38.90
2018-02-16T07:02:00.353Z,39.70
2018-02-16T07:03:00.352Z,40.20
2018-02-16T07:04:00.355Z,42.20
2018-02-16T07:05:02.397Z,41.80
2018-02-16T07:06:00.356Z,42.00
2018-02-16T07:07:02.369Z,42.50
2018-02-16T07:08:00.349Z,43.30
2018-02-16T07:09:00.356Z,42.00
2018-02-16T07:10:00.349Z,42.70
2018-02-16T07:11:01.362Z,44.50
2018-02-16T07:12:00.360Z,44.80
2018-02-16T07:13:02.356Z,46.30
2018-02-16T07:14:00.356Z,45.80
2018-02-16T07:15:02.382Z,45.20
2018-02-16T07:16:00.352Z,46.40
2018-02-16T07:17:01.359Z,47.50
2018-02-16T07:18:00.385Z,46.50
2018-02-16T07:19:00.369Z,46.70
2018-02-16T07:20:00.352Z,46.50
2018-02-16T07:21:02.365Z,46.50
2018-02-16T07:22:00.356Z,45.30
2018-02-16T07:23:00.363Z,47.40
2018-02-16T07:24:00.355Z,46.30
2018-02-16T07:25:00.378Z,48.10
2018-02-16T07:26:00.358Z,45.80
2018-02-16T07:27:02.475Z,45.70
2018-02-16T07:28:00.363Z,45.20
2018-02-16T07:29:01.465Z,48.00
2018-02-16T07:30:00.363Z,48.20
2018-02-16T07:31:00.502Z,46.00
2018-02-16T07:32:00.372Z,45.90
2018-02-16T07:33:00.468Z,46.60
2018-02-16T07:34:00.363Z,47.20
2018-02-16T07:35:01.401Z,47.90
2018-02-16T07:36:00.369Z,46.50
2018-02-16T07:37:07.254Z,45.60
2018-02-16T07:38:00.361Z,46.20
2018-02-16T07:39:02.451Z,47.20
2018-02-16T07:40:00.373Z,49.30
2018-02-16T07:41:00.418Z,49.00
2018-02-16T07:42:00.364Z,48.60
2018-02-16T07:43:01.455Z,46.90
2018-02-16T07:44:00.364Z,49.20
2018-02-16T07:45:05.247Z,46.00
2018-02-16T07:46:00.391Z,45.10
2018-02-16T07:47:00.450Z,47.20
2018-02-16T07:48:00.380Z,45.50
2018-02-16T07:49:00.468Z,48.40
2018-02-16T07:50:00.463Z,47.90
2018-02-16T07:51:05.290Z,47.00
2018-02-16T07:52:00.374Z,48.90
2018-02-16T07:53:11.242Z,47.60
2018-02-16T07:54:00.418Z,47.80
2018-02-16T07:55:01.428Z,48.00
2018-02-16T07:56:00.374Z,48.10
2018-02-16T07:57:02.468Z,47.50
2018-02-16T07:58:00.376Z,50.10
2018-02-16T07:59:00.426Z,47.60
2018-02-16T08:00:00.377Z,50.00
2018-02-16T08:01:06.299Z,49.90
2018-02-16T08:02:00.390Z,46.50
2018-02-16T08:03:13.259Z,48.60
2018-02-16T08:04:00.389Z,49.40
2018-02-16T08:05:37.226Z,50.40
2018-02-16T08:06:00.389Z,48.90
2018-02-16T08:07:11.236Z,48.70
2018-02-16T08:08:00.384Z,51.20
2018-02-16T08:09:07.264Z,50.90
2018-02-16T08:10:00.403Z,50.20
2018-02-16T08:11:12.280Z,49.70
2018-02-16T08:12:00.397Z,48.50
2018-02-16T08:16:30.922Z,52.10
2018-02-16T08:17:30.896Z,51.60
2018-02-16T08:18:30.965Z,54.50
2018-02-16T08:19:30.904Z,52.90
2018-02-16T08:20:30.989Z,54.40
2018-02-16T08:21:30.905Z,56.10
2018-02-16T08:22:31.025Z,51.70
2018-02-16T08:23:30.952Z,58.00
2018-02-16T08:24:43.713Z,55.50
2018-02-16T08:25:30.898Z,54.80
2018-02-16T08:26:30.950Z,53.80
2018-02-16T08:27:30.898Z,53.60
2018-02-16T08:28:31.970Z,51.80
2018-02-16T08:29:30.900Z,52.50
2018-02-16T08:30:30.980Z,53.30
2018-02-16T08:31:30.906Z,55.30
2018-02-16T08:32:32.005Z,56.60
2018-02-16T08:33:30.917Z,54.70
2018-02-16T08:34:35.700Z,56.00
2018-02-16T08:35:30.913Z,52.80
2018-02-16T08:36:30.991Z,53.50
2018-02-16T08:37:30.909Z,51.40
2018-02-16T08:38:30.909Z,53.70
2018-02-16T08:39:30.907Z,55.00
2018-02-16T08:40:30.922Z,54.80
2018-02-16T08:41:30.908Z,55.30
2018-02-16T08:42:32.975Z,57.30
2018-02-16T08:43:30.907Z,55.80
2018-02-16T08:44:30.910Z,56.20
2018-02-16T08:45:30.911Z,53.70
2018-02-16T08:46:30.910Z,57.10
2018-02-16T08:47:33.016Z,57.30
2018-02-16T08:48:30.919Z,55.90
2018-02-16T08:49:30.923Z,55.30
2018-02-16T08:50:30.980Z,55.80
2018-02-16T08:51:30.909Z,60.20
2018-02-16T08:52:30.914Z,58.10
2018-02-16T08:53:31.028Z,59.00
2018-02-16T08:54:30.919Z,57.70
2018-02-16T08:55:31.024Z,59.70
2018-02-16T08:56:30.919Z,61.90
2018-02-16T08:57:31.034Z,59.20
2018-02-16T08:58:30.918Z,61.90
2018-02-16T08:59:36.673Z,58.90
2018-02-16T09:00:30.924Z,62.00
2018-02-16T09:01:30.925Z,64.50
2018-02-16T09:02:30.925Z,62.00
2018-02-16T09:03:30.977Z,61.00
2018-02-16T09:04:30.927Z,58.10
2018-02-16T09:05:30.925Z,60.70
2018-02-16T09:06:33.039Z,61.60
2018-02-16T09:07:30.939Z,63.70
2018-02-16T09:08:31.011Z,60.40
2018-02-16T09:09:30.924Z,63.20
2018-02-16T09:10:35.728Z,64.60
2018-02-16T09:11:30.932Z,60.90
2018-02-16T09:12:31.029Z,62.70
2018-02-16T09:13:30.933Z,61.80
2018-02-16T09:14:36.675Z,58.20
2018-02-16T09:15:30.934Z,63.30
2018-02-16T09:16:30.997Z,62.60
2018-02-16T09:17:30.944Z,64.80
2018-02-16T09:18:30.944Z,65.40
2018-02-16T09:19:30.974Z,66.90
2018-02-16T09:20:30.939Z,66.40
2018-02-16T09:21:30.952Z,65.50
2018-02-16T09:22:31.062Z,63.20
2018-02-16T09:23:31.096Z,67.30
2018-02-16T09:24:31.075Z,64.70
2018-02-16T09:25:30.961Z,62.40
2018-02-16T09:26:30.961Z,63.50
2018-02-16T09:27:30.948Z,63.50
2018-02-16T09:28:30.982Z,64.00
2018-02-16T09:29:30.959Z,61.70
2018-02-16T09:30:30.995Z,66.20
2018-02-16T09:31:30.960Z,66.80
2018-02-16T09:32:31.017Z,66.30
2018-02-16T09:33:30.963Z,66.20
2018-02-16T09:34:30.978Z,63.20
2018-02-16T09:35:30.979Z,64.20
2018-02-16T09:36:30.959Z,67.40
2018-02-16T09:37:30.964Z,64.60
2018-02-16T09:38:30.969Z,63.10
2018-02-16T09:39:30.963Z,64.80
2018-02-16T09:40:30.967Z,62.80
2018-02-16T09:41:30.983Z,61.70
2018-02-16T09:42:30.975Z,61.40
2018-02-16T09:43:30.981Z,62.50
2018-02-16T09:44:30.975Z,63.50
2018-02-16T09:45:30.992Z,61.10
2018-02-16T09:46:30.989Z,57.70
2018-02-16T09:47:30.975Z,60.70
2018-02-16T09:48:30.974Z,61.50
2018-02-16T09:49:30.974Z,63.00
2018-02-16T09:50:30.982Z,60.20
2018-02-16T09:51:31.055Z,60.40
2018-02-16T09:52:31.018Z,61.40
2018-02-16T09:53:30.985Z,64.80
2018-02-16T09:54:31.071Z,60.90
2018-02-16T09:55:31.000Z,59.50
2018-02-16T09:56:31.004Z,61.80
2018-02-16T09:57:30.992Z,66.90
2018-02-16T09:58:30.987Z,63.00
2018-02-16T09:59:31.021Z,61.80
2018-02-16T10:00:30.995Z,62.30
2018-02-16T10:01:31.135Z,61.30
2018-02-16T10:02:30.996Z,63.00
2018-02-16T10:03:31.013Z,59.30
2018-02-16T10:04:30.997Z,60.30
2018-02-16T10:05:31.001Z,63.50
2018-02-16T10:06:31.031Z,65.80
2018-02-16T10:07:31.110Z,62.50
2018-02-16T10:08:31.013Z,65.50
2018-02-16T10:09:31.182Z,65.90
2018-02-16T10:10:31.158Z,62.00
2018-02-16T10:11:31.064Z,58.60
2018-02-16T10:12:31.051Z,60.40
2018-02-16T10:13:31.053Z,60.90
2018-02-16T10:14:31.067Z,61.30
2018-02-16T10:15:31.087Z,62.10
2018-02-16T10:16:31.020Z,60.40
2018-02-16T10:17:31.125Z,61.60
2018-02-16T10:18:31.031Z,60.90
2018-02-16T10:19:31.136Z,61.10
2018-02-16T10:20:31.018Z,60.30
2018-02-16T10:21:31.145Z,60.60
2018-02-16T10:22:31.076Z,61.30
2018-02-16T10:23:31.041Z,59.00
2018-02-16T10:24:32.081Z,58.40
2018-02-16T10:25:31.024Z,60.20
2018-02-16T10:26:31.066Z,60.20
2018-02-16T10:27:31.036Z,60.60
2018-02-16T10:28:31.085Z,60.80
2018-02-16T10:29:31.038Z,58.20
2018-02-16T10:30:31.032Z,62.20
2018-02-16T10:31:31.103Z,59.80
2018-02-16T10:32:31.036Z,60.90
2018-02-16T10:33:31.043Z,58.90
2018-02-16T10:34:31.050Z,58.60
2018-02-16T10:35:31.138Z,58.90
2018-02-16T10:36:31.050Z,60.70
2018-02-16T10:37:31.061Z,62.60
2018-02-16T10:38:31.045Z,73.80
2018-02-16T10:39:31.054Z,62.20
2018-02-16T10:40:31.045Z,58.50
2018-02-16T10:41:31.055Z,54.90
2018-02-16T10:42:31.086Z,54.40
2018-02-16T10:43:31.077Z,52.90
2018-02-16T10:44:31.048Z,53.80
2018-02-16T10:45:31.071Z,52.70
2018-02-16T10:46:31.055Z,52.70
2018-02-16T10:47:31.067Z,52.30
2018-02-16T10:48:31.061Z,52.00
2018-02-16T10:49:31.068Z,51.20
2018-02-16T10:50:31.066Z,51.30
2018-02-16T10:51:31.067Z,52.60
2018-02-16T10:52:31.066Z,52.00
2018-02-16T10:53:31.085Z,49.20
2018-02-16T10:54:31.081Z,52.10
2018-02-16T10:55:31.117Z,52.40
2018-02-16T10:56:31.073Z,50.30
2018-02-16T10:57:31.082Z,50.70
2018-02-16T10:58:31.150Z,49.20
2018-02-16T10:59:31.076Z,50.00
2018-02-16T11:00:33.197Z,48.40
2018-02-16T11:01:31.090Z,47.10
2018-02-16T11:02:31.082Z,46.80
2018-02-16T11:03:31.177Z,47.40
2018-02-16T11:04:31.096Z,44.80
2018-02-16T11:05:31.091Z,41.50
2018-02-16T11:06:31.095Z,41.00
2018-02-16T11:07:31.232Z,40.30
2018-02-16T11:08:31.105Z,39.90
2018-02-16T11:09:31.125Z,37.60
2018-02-16T11:10:31.106Z,38.00
2018-02-16T11:11:31.115Z,36.60
2018-02-16T11:12:31.115Z,36.00
2018-02-16T11:13:31.106Z,38.20
2018-02-16T11:14:31.113Z,36.40
2018-02-16T11:15:31.115Z,35.90
2018-02-16T11:16:31.114Z,32.80
2018-02-16T11:17:31.108Z,32.50
2018-02-16T11:18:31.176Z,33.10
2018-02-16T11:19:31.118Z,33.10
2018-02-16T11:20:31.130Z,32.00
2018-02-16T11:21:31.126Z,28.80
2018-02-16T11:22:31.311Z,27.10
2018-02-16T11:23:31.130Z,23.80
2018-02-16T11:24:31.124Z,24.10
2018-02-16T11:25:31.140Z,24.10
2018-02-16T11:26:31.130Z,22.80
2018-02-16T11:27:31.149Z,21.10
2018-02-16T11:28:31.259Z,20.50
2018-02-16T11:29:31.145Z,19.80
2018-02-16T11:30:31.142Z,19.30
2018-02-16T11:31:31.145Z,16.90
2018-02-16T11:32:31.211Z,16.20
2018-02-16T11:33:31.174Z,15.70
2018-02-16T11:34:31.160Z,15.50
2018-02-16T11:35:31.176Z,16.10
2018-02-16T11:36:32.224Z,13.80
2018-02-16T11:37:31.154Z,14.20
2018-02-16T11:38:31.160Z,13.30
2018-02-16T11:39:31.176Z,13.40
2018-02-16T11:40:31.174Z,13.00
2018-02-16T11:41:31.171Z,13.00
2018-02-16T11:42:31.172Z,12.60
2018-02-16T11:43:31.171Z,11.60
2018-02-16T11:44:31.193Z,11.80
2018-02-16T11:45:31.258Z,11.40
2018-02-16T11:46:31.190Z,10.40
2018-02-16T11:47:31.274Z,10.70
2018-02-16T11:48:31.182Z,11.10
2018-02-16T11:49:31.181Z,9.20
2018-02-16T11:50:31.297Z,8.50
2018-02-16T11:51:31.187Z,7.60
2018-02-16T11:52:31.202Z,7.40
2018-02-16T11:53:31.198Z,8.90
2018-02-16T11:54:31.217Z,8.00
2018-02-16T11:55:31.198Z,8.70
2018-02-16T11:56:31.233Z,7.80
2018-02-16T11:57:31.263Z,8.30
2018-02-16T11:58:31.224Z,7.50
2018-02-16T11:59:31.221Z,7.90
2018-02-16T12:00:31.214Z,8.50
2018-02-16T12:01:31.290Z,7.50
2018-02-16T12:02:31.221Z,7.30
2018-02-16T12:03:31.277Z,8.40
2018-02-16T12:04:31.228Z,7.60
2018-02-16T12:05:31.285Z,7.70
2018-02-16T12:06:31.236Z,7.90
2018-02-16T12:07:31.336Z,8.00
2018-02-16T12:08:31.250Z,7.50
2018-02-16T12:09:31.302Z,7.30
2018-02-16T12:10:31.281Z,7.10
2018-02-16T12:11:31.306Z,6.00
2018-02-16T12:12:31.268Z,6.00
2018-02-16T12:13:31.338Z,5.80
2018-02-16T12:14:31.251Z,6.30
2018-02-16T12:15:31.372Z,5.70
2018-02-16T12:16:31.265Z,6.70
2018-02-16T12:17:31.352Z,6.10
2018-02-16T12:18:31.268Z,6.20
2018-02-16T12:19:31.330Z,7.10
2018-02-16T12:20:31.268Z,6.10
2018-02-16T12:21:31.368Z,6.60
2018-02-16T12:22:31.327Z,6.20
2018-02-16T12:23:31.405Z,7.20
2018-02-16T12:24:31.335Z,6.90
2018-02-16T12:25:31.397Z,6.60
2018-02-16T12:26:31.303Z,6.20
2018-02-16T12:27:31.403Z,6.40
2018-02-16T12:28:31.311Z,6.20
2018-02-16T12:29:31.424Z,6.10
2018-02-16T12:30:31.427Z,5.40
2018-02-16T12:31:31.434Z,5.90
2018-02-16T12:32:31.308Z,5.50
2018-02-16T12:33:31.348Z,5.60
2018-02-16T12:34:31.360Z,5.60
2018-02-16T12:35:31.316Z,5.30
2018-02-16T12:36:31.322Z,4.80
2018-02-16T12:37:31.331Z,5.70
2018-02-16T12:38:31.323Z,4.90
2018-02-16T12:39:31.386Z,5.00
2018-02-16T12:40:31.331Z,4.70
2018-02-16T12:41:31.336Z,4.60
2018-02-16T12:42:31.343Z,4.60
2018-02-16T12:43:33.353Z,5.50
2018-02-16T12:44:31.336Z,5.10
2018-02-16T12:45:31.352Z,4.80
2018-02-16T12:46:31.342Z,5.00
2018-02-16T12:47:31.350Z,4.70
2018-02-16T12:48:31.382Z,5.30
2018-02-16T12:49:31.362Z,4.70
2018-02-16T12:50:31.395Z,5.50
2018-02-16T12:51:31.399Z,5.60
2018-02-16T12:52:31.365Z,4.50
2018-02-16T12:53:31.383Z,5.10
2018-02-16T12:54:31.375Z,5.20
2018-02-16T12:55:31.379Z,4.70
2018-02-16T12:56:31.389Z,5.00
2018-02-16T12:57:31.379Z,4.80
2018-02-16T12:58:31.403Z,4.70
2018-02-16T12:59:31.389Z,4.20
2018-02-16T13:00:31.384Z,4.60
2018-02-16T13:01:31.403Z,5.30
2018-02-16T13:02:31.395Z,4.40
2018-02-16T13:03:31.406Z,4.60
2018-02-16T13:04:31.411Z,4.30
2018-02-16T13:05:31.513Z,4.70
2018-02-16T13:06:31.415Z,5.10
2018-02-16T13:07:31.414Z,4.60
2018-02-16T13:08:31.442Z,4.20
2018-02-16T13:09:31.514Z,4.50
2018-02-16T13:10:31.425Z,4.30
2018-02-16T13:11:31.533Z,4.40
2018-02-16T13:12:31.433Z,5.10
2018-02-16T13:13:31.540Z,4.50
2018-02-16T13:14:31.438Z,4.40
2018-02-16T13:15:31.439Z,7.00
2018-02-16T13:16:31.533Z,4.30
2018-02-16T13:17:31.446Z,4.30
2018-02-16T13:18:31.544Z,4.80
2018-02-16T13:19:31.466Z,4.60
2018-02-16T13:20:31.571Z,4.80
2018-02-16T13:21:31.454Z,4.50
2018-02-16T13:22:31.575Z,4.80
2018-02-16T13:23:31.462Z,4.70
2018-02-16T13:24:33.032Z,4.30
2018-02-16T13:25:31.469Z,4.60
2018-02-16T13:26:31.475Z,4.60
2018-02-16T13:27:32.544Z,4.50
2018-02-16T13:28:31.486Z,4.50
2018-02-16T13:29:31.618Z,4.40
2018-02-16T13:30:31.517Z,5.30
2018-02-16T13:31:31.532Z,4.30
2018-02-16T13:32:31.497Z,4.20
2018-02-16T13:33:31.547Z,3.70
2018-02-16T13:34:31.506Z,4.60
2018-02-16T13:35:31.562Z,4.80
2018-02-16T13:36:31.515Z,4.50
2018-02-16T13:37:31.607Z,5.30
2018-02-16T13:38:31.516Z,4.90
2018-02-16T13:39:31.520Z,4.20
2018-02-16T13:40:31.534Z,4.40
2018-02-16T13:41:31.522Z,4.30
2018-02-16T13:42:31.524Z,4.50
2018-02-16T13:43:31.535Z,4.20
2018-02-16T13:44:31.546Z,4.40
2018-02-16T13:45:31.565Z,4.00
2018-02-16T13:46:31.551Z,4.00
2018-02-16T13:47:31.546Z,4.80
2018-02-16T13:48:31.549Z,4.20
2018-02-16T13:49:31.582Z,4.50
2018-02-16T13:50:31.564Z,3.50
2018-02-16T13:51:31.582Z,4.10
2018-02-16T13:52:31.565Z,4.10
2018-02-16T13:53:31.569Z,4.10
2018-02-16T13:54:31.743Z,4.00
2018-02-16T13:55:31.580Z,3.90
2018-02-16T13:56:31.584Z,4.30
2018-02-16T13:57:31.604Z,4.00
2018-02-16T13:58:31.847Z,3.70
2018-02-16T13:59:31.595Z,3.50
2018-02-16T14:00:31.601Z,3.70
2018-02-16T14:01:31.602Z,3.60
2018-02-16T14:02:31.638Z,3.90
2018-02-16T14:03:31.616Z,3.70
2018-02-16T14:04:31.611Z,3.60
2018-02-16T14:05:31.655Z,3.90
2018-02-16T14:06:31.640Z,3.40
2018-02-16T14:07:31.674Z,3.80
2018-02-16T14:08:31.629Z,3.90
2018-02-16T14:09:31.702Z,4.30
2018-02-16T14:10:31.640Z,4.30
2018-02-16T14:11:31.706Z,5.20
2018-02-16T14:12:31.657Z,3.30
2018-02-16T14:13:31.643Z,3.70
2018-02-16T14:14:31.670Z,3.10
2018-02-16T14:15:31.740Z,3.60
2018-02-16T14:16:31.656Z,3.60
2018-02-16T14:17:31.668Z,3.70
2018-02-16T14:18:31.668Z,3.50
2018-02-16T14:19:31.679Z,3.60
2018-02-16T14:20:31.772Z,2.90
2018-02-16T14:21:31.676Z,4.30
2018-02-16T14:22:31.795Z,3.30
2018-02-16T14:23:31.701Z,3.60
2018-02-16T14:24:31.799Z,3.60
2018-02-16T14:25:31.704Z,3.30
2018-02-16T14:26:31.814Z,3.30
2018-02-16T14:27:31.703Z,3.30
2018-02-16T14:28:31.824Z,3.70
2018-02-16T14:29:31.744Z,3.30
2018-02-16T14:30:31.735Z,3.50
2018-02-16T14:31:31.715Z,3.00
2018-02-16T14:32:31.749Z,3.70
2018-02-16T14:33:31.742Z,3.50
2018-02-16T14:34:31.766Z,3.50
2018-02-16T14:35:31.746Z,3.70
2018-02-16T14:36:31.788Z,3.60
2018-02-16T14:37:31.740Z,3.50
2018-02-16T14:38:31.790Z,3.30
2018-02-16T14:39:31.750Z,3.20
2018-02-16T14:40:31.804Z,3.60
2018-02-16T14:41:31.763Z,3.10
2018-02-16T14:42:31.873Z,2.90
2018-02-16T14:43:31.783Z,2.60
2018-02-16T14:44:31.825Z,2.70
2018-02-16T14:45:31.773Z,3.00
2018-02-16T14:46:31.841Z,3.30
2018-02-16T14:47:31.780Z,4.00
2018-02-16T14:48:31.856Z,3.70
2018-02-16T14:49:31.802Z,3.20
2018-02-16T14:50:32.899Z,3.00
2018-02-16T14:51:31.807Z,3.20
2018-02-16T14:52:31.893Z,3.50
2018-02-16T14:53:31.809Z,2.90
2018-02-16T14:54:31.904Z,2.80
2018-02-16T14:55:31.814Z,3.70
2018-02-16T14:56:31.920Z,3.30
2018-02-16T14:57:31.827Z,3.30
2018-02-16T14:58:31.941Z,3.20
2018-02-16T14:59:31.851Z,3.30
2018-02-16T15:00:32.914Z,3.50
2018-02-16T15:01:33.680Z,3.60
2018-02-16T15:02:31.928Z,4.00
2018-02-16T15:03:31.851Z,3.80
2018-02-16T15:04:31.914Z,3.60
2018-02-16T15:05:31.867Z,3.30
2018-02-16T15:06:31.872Z,4.00
2018-02-16T15:07:33.675Z,4.10
2018-02-16T15:08:33.671Z,3.70
2018-02-16T15:09:34.669Z,3.60
2018-02-16T15:10:34.672Z,3.90
2018-02-16T15:11:34.670Z,4.00
2018-02-16T15:12:31.884Z,3.40
2018-02-16T15:13:31.975Z,3.70
2018-02-16T15:14:31.911Z,4.30
2018-02-16T15:15:31.989Z,3.90
2018-02-16T15:16:31.902Z,3.80
2018-02-16T15:17:32.000Z,3.50
2018-02-16T15:18:31.905Z,4.00
2018-02-16T15:19:32.006Z,3.70
2018-02-16T15:20:31.936Z,3.90
2018-02-16T15:21:33.050Z,3.70
2018-02-16T15:22:31.924Z,3.40
2018-02-16T15:23:31.930Z,3.10
2018-02-16T15:24:32.046Z,3.70
2018-02-16T15:25:31.943Z,2.90
2018-02-16T15:26:32.051Z,4.10